• Join FlightAware (Why Join?)
  • Login
  • US Flag 
04:38AM EDT


 

Airport Tracker/Info


-or-


 

Live Flight TrackerFlight Track Log ✈ SWA34 ✈ 08-May-2013 ✈ KFLL - KJAX

Flight Track Log - Related Links

Times and Time Zones

All times are in EDT time to prevent confusion due to time zone crossing. See the SWA34 flight status page for this flight to view local times or setup timezone preferences in your user account.

Time Position Orientation Groundspeed Altitude Reporting Facility
EDT Latitude Longitude Course Direction KTS MPH feet Rate Location/Type
06:50AM 26.0719 -80.1758 273° West 155 178 900  Level Miami Center
06:51AM 26.0733 -80.2106 273° West 196 226 2,000 1,920 Climbing Miami Center
06:51AM 26.0767 -80.2408 277° West 206 237 2,800 2,340 Climbing Miami Center
06:52AM 26.1303 -80.2725 332° Northwest 246 283 5,300 3,060 Climbing Miami Center
06:53AM 26.1989 -80.2883 348° North 251 289 9,000 3,360 Climbing Miami Center
06:54AM 26.2836 -80.3231 340° North 283 326 12,100 2,580 Climbing Miami Center
06:55AM 26.3706 -80.3606 339° North 320 368 14,200 2,820 Climbing Miami Center
06:56AM 26.4614 -80.4025 338° Northwest 343 395 17,800 2,640 Climbing Miami Center
06:57AM 26.5564 -80.4450 338° Northwest 357 411 19,500 2,220 Climbing Miami Center
06:58AM 26.6597 -80.4853 341° North 372 428 22,300 2,280 Climbing Miami Center
06:59AM 26.7633 -80.5256 341° North 390 449 24,100 1,800 Climbing Miami Center
07:00AM 26.8583 -80.5636 340° North 390 449 26,000 1,440 Climbing Miami Center
07:01AM 26.9658 -80.6089 339° North 401 461 27,000 480 Climbing Miami Center
07:02AM 27.0772 -80.6544 340° North 406 467 27,000  Level Miami Center
07:03AM 27.1869 -80.6978 341° North 411 473 27,000  Level Miami Center
07:04AM 27.2983 -80.7411 341° North 416 479 27,000  Level Miami Center
07:05AM 27.4222 -80.7922 340° North 421 484 27,000  Level Miami Center
07:06AM 27.5297 -80.8381 339° North 421 484 27,000  Level Miami Center
07:07AM 27.6411 -80.8817 341° North 421 484 27,000  Level Miami Center
07:08AM 27.7506 -80.9278 340° North 429 494 27,000  Level Miami Center
07:09AM 27.8639 -80.9717 341° North 429 494 27,000  Level Miami Center
07:10AM 27.9733 -81.0181 339° North 424 488 27,000  Level Miami Center
07:11AM 28.0825 -81.0619 340° North 424 488 27,000  Level Miami Center
07:13AM 28.2800 -81.1483 339° North 416 479 27,000  Level Jacksonville Center
07:14AM 28.3869 -81.1914 340° North 416 479 27,000  Level Jacksonville Center
07:15AM 28.4983 -81.2392 339° North 416 479 27,000 -360 Level Jacksonville Center
07:16AM 28.6094 -81.2844 340° North 416 479 26,300 -900 Descending Jacksonville Center
07:17AM 28.7186 -81.3325 339° North 416 479 25,200 -1,140 Descending Jacksonville Center
07:18AM 28.8153 -81.3950 330° Northwest 405 466 24,100 -1,080 Descending Jacksonville Center
07:19AM 28.9100 -81.4553 331° Northwest 400 460 23,100 -1,020 Descending Jacksonville Center
07:20AM 28.9814 -81.5042 329° Northwest 385 443 22,400 -900 Descending Jacksonville Center
07:20AM 29.0044 -81.5156 337° Northwest 395 455 22,200 -960 Descending Jacksonville Center
07:21AM 29.0950 -81.5783 329° Northwest 384 442 21,300 -1,020 Descending Jacksonville Center
07:22AM 29.1872 -81.6392 330° Northwest 385 443 20,300 -1,020 Descending Jacksonville Center
07:23AM 29.2939 -81.6639 349° North 394 453 19,300 -1,020 Descending Jacksonville Center
07:24AM 29.4008 -81.6936 346° North 384 442 18,300 -1,500 Descending Jacksonville Center
07:25AM 29.5011 -81.7067 354° North 373 429 16,300 -2,280 Descending Jacksonville Center
07:26AM 29.5992 -81.7056 North 353 406 14,100 -2,340 Descending Jacksonville Center
07:27AM 29.7036 -81.7067 359° North 340 391 11,700 -1,800 Descending Jacksonville Center
07:28AM 29.7872 -81.7103 358° North 338 389 10,300 -1,260 Descending Jacksonville Center
07:29AM 29.8706 -81.7069 North 313 360 9,200 -1,440 Descending Jacksonville Center
07:30AM 29.9603 -81.6939 North 289 333 7,400 -1,500 Descending Jacksonville Center
07:31AM 30.0375 -81.6808 North 279 321 6,200 -1,020 Descending Jacksonville Center
07:32AM 30.1167 -81.6681 North 280 322 5,400 -1,080 Descending Jacksonville Center
07:33AM 30.1853 -81.6550 North 274 315 4,200 -1,320 Descending Jacksonville Center
07:34AM 30.2603 -81.6444 North 267 307 2,900 -720 Descending Jacksonville Center
07:35AM 30.3106 -81.6439 North 214 246 3,000 -360 Climbing Jacksonville Center
07:36AM 30.3647 -81.6431 North 181 208 2,300 -780 Descending Jacksonville Center
07:37AM 30.4150 -81.6472 356° North 174 200 1,500 -840 Descending Jacksonville Center
07:38AM 30.4506 -81.6564 347° North 133 153 700 -900 Descending Jacksonville Center
07:40AM 30.4833 -81.6833 311° West  Level FlightAware Approximate
07:47AM 30.4941 -81.6879 311° West  Level Estimated